createdAt,value
2023-03-11T00:00:23.176Z,1.27
2023-03-11T00:02:53.006Z,1.10
2023-03-11T00:05:24.204Z,1.77
2023-03-11T00:07:51.856Z,1.52
2023-03-11T00:10:30.834Z,0.82
2023-03-11T00:12:59.430Z,1.65
2023-03-11T00:15:27.463Z,1.40
2023-03-11T00:17:54.512Z,1.30
2023-03-11T00:20:24.862Z,1.58
2023-03-11T00:22:52.721Z,1.40
2023-03-11T00:25:21.738Z,2.15
2023-03-11T00:27:48.716Z,1.20
2023-03-11T00:30:16.813Z,2.08
2023-03-11T00:32:44.400Z,1.77
2023-03-11T00:35:17.586Z,0.82
2023-03-11T00:37:46.329Z,1.25
2023-03-11T00:40:15.221Z,1.63
2023-03-11T00:42:42.643Z,2.13
2023-03-11T00:45:11.340Z,1.27
2023-03-11T00:47:39.183Z,1.90
2023-03-11T00:50:10.042Z,2.30
2023-03-11T00:52:37.403Z,3.67
2023-03-11T00:55:06.019Z,1.73
2023-03-11T00:57:33.512Z,1.75
2023-03-11T01:00:01.011Z,3.05
2023-03-11T01:02:28.723Z,1.58
2023-03-11T01:04:56.748Z,1.48
2023-03-11T01:07:24.370Z,2.05
2023-03-11T01:09:51.508Z,3.05
2023-03-11T01:12:18.656Z,2.17
2023-03-11T01:14:45.587Z,3.15
2023-03-11T01:17:12.619Z,3.47
2023-03-11T01:19:39.539Z,3.15
2023-03-11T01:22:06.533Z,4.05
2023-03-11T01:24:33.609Z,5.97
2023-03-11T01:27:00.620Z,2.47
2023-03-11T01:29:27.728Z,3.05
2023-03-11T01:31:54.990Z,3.25
2023-03-11T01:34:22.088Z,2.95
2023-03-11T01:36:49.060Z,3.65
2023-03-11T01:39:16.247Z,5.85
2023-03-11T01:41:43.171Z,2.88
2023-03-11T01:44:12.969Z,2.50
2023-03-11T01:46:52.285Z,4.00
2023-03-11T01:49:23.716Z,5.47
2023-03-11T01:52:07.779Z,1.67
2023-03-11T01:54:39.425Z,2.80
2023-03-11T01:57:09.789Z,2.60
2023-03-11T01:59:40.453Z,4.55
2023-03-11T02:02:34.396Z,2.53
2023-03-11T02:05:03.402Z,3.65
2023-03-11T02:07:30.576Z,2.50
2023-03-11T02:09:57.669Z,3.47
2023-03-11T02:12:25.410Z,2.33
2023-03-11T02:14:54.598Z,2.92
2023-03-11T02:17:22.413Z,2.90
2023-03-11T02:20:18.408Z,2.60
2023-03-11T02:22:46.048Z,2.15
2023-03-11T02:25:46.261Z,4.57
2023-03-11T02:28:15.666Z,2.15
2023-03-11T02:30:44.206Z,4.10
2023-03-11T02:33:13.094Z,2.30
2023-03-11T02:35:40.401Z,3.28
2023-03-11T02:38:07.468Z,3.42
2023-03-11T02:40:40.048Z,2.45
2023-03-11T02:43:10.579Z,2.10
2023-03-11T02:45:40.110Z,2.25
2023-03-11T02:48:10.494Z,2.40
2023-03-11T02:50:37.766Z,2.70
2023-03-11T02:53:06.030Z,2.58
2023-03-11T02:55:33.791Z,7.05
2023-03-11T02:58:00.855Z,4.45
2023-03-11T03:00:28.206Z,3.70
2023-03-11T03:02:55.760Z,3.30
2023-03-11T03:05:23.161Z,1.95
2023-03-11T03:07:51.299Z,3.85
2023-03-11T03:10:19.926Z,3.78
2023-03-11T03:12:47.191Z,4.35
2023-03-11T03:15:16.001Z,3.28
2023-03-11T03:17:43.298Z,3.85
2023-03-11T03:20:11.403Z,1.73
2023-03-11T03:22:39.421Z,4.43
2023-03-11T03:25:07.337Z,3.88
2023-03-11T03:27:35.075Z,14.23
2023-03-11T03:30:02.185Z,3.58
2023-03-11T03:32:29.413Z,3.00
2023-03-11T03:34:59.157Z,2.55
2023-03-11T03:37:27.809Z,3.22
2023-03-11T03:39:55.289Z,2.08
2023-03-11T03:42:22.488Z,2.10
2023-03-11T03:44:49.565Z,1.55
2023-03-11T03:47:16.744Z,1.88
2023-03-11T03:49:43.997Z,2.20
2023-03-11T03:52:11.193Z,1.48
2023-03-11T03:54:38.167Z,1.83
2023-03-11T03:57:05.556Z,4.40
2023-03-11T03:59:32.551Z,3.70
2023-03-11T04:02:01.411Z,2.72
2023-03-11T04:04:28.651Z,3.20
2023-03-11T04:06:56.095Z,1.70
2023-03-11T04:09:23.262Z,2.38
2023-03-11T04:11:50.373Z,2.85
2023-03-11T04:14:17.597Z,4.10
2023-03-11T04:16:44.738Z,2.25
2023-03-11T04:19:12.264Z,3.00
2023-03-11T04:21:39.248Z,2.10
2023-03-11T04:24:06.567Z,3.63
2023-03-11T04:26:33.654Z,3.90
2023-03-11T04:29:00.811Z,4.15
2023-03-11T04:31:28.511Z,4.70
2023-03-11T04:33:55.870Z,2.65
2023-03-11T04:36:23.044Z,3.80
2023-03-11T04:38:50.298Z,4.85
2023-03-11T04:41:17.623Z,1.73
2023-03-11T04:43:44.904Z,2.65
2023-03-11T04:46:12.325Z,2.20
2023-03-11T04:48:39.765Z,2.40
2023-03-11T04:51:07.499Z,4.68
2023-03-11T04:53:34.965Z,2.70
2023-03-11T04:56:02.221Z,3.63
2023-03-11T04:58:29.554Z,1.75
2023-03-11T05:00:56.756Z,2.22
2023-03-11T05:03:24.603Z,3.33
2023-03-11T05:05:55.011Z,3.17
2023-03-11T05:08:22.850Z,1.25
2023-03-11T05:10:53.001Z,2.80
2023-03-11T05:13:20.872Z,1.90
2023-03-11T05:15:48.427Z,5.53
2023-03-11T05:18:15.614Z,2.08
2023-03-11T05:20:42.599Z,4.13
2023-03-11T05:23:09.635Z,4.28
2023-03-11T05:25:36.718Z,2.63
2023-03-11T05:28:04.059Z,2.53
2023-03-11T05:30:31.867Z,6.03
2023-03-11T05:32:59.046Z,3.00
2023-03-11T05:35:26.351Z,1.33
2023-03-11T05:37:54.832Z,2.05
2023-03-11T05:40:22.231Z,2.58
2023-03-11T05:42:49.265Z,2.85
2023-03-11T05:45:19.221Z,2.63
2023-03-11T05:47:46.175Z,5.10
2023-03-11T05:50:14.743Z,3.05
2023-03-11T05:52:41.818Z,2.53
2023-03-11T05:55:11.444Z,3.83
2023-03-11T05:57:39.514Z,2.33
2023-03-11T06:00:12.097Z,2.67
2023-03-11T06:02:41.048Z,4.50
2023-03-11T06:05:10.427Z,3.70
2023-03-11T06:07:38.609Z,4.55
2023-03-11T06:10:06.141Z,1.88
2023-03-11T06:12:35.286Z,2.50
2023-03-11T06:15:02.295Z,5.35
2023-03-11T06:17:30.459Z,4.05
2023-03-11T06:19:57.689Z,4.60
2023-03-11T06:22:24.963Z,4.25
2023-03-11T06:24:52.082Z,3.53
2023-03-11T06:27:19.067Z,6.47
2023-03-11T06:29:48.351Z,9.88
2023-03-11T06:32:15.945Z,6.75
2023-03-11T06:34:43.128Z,5.35
2023-03-11T06:37:10.335Z,2.40
2023-03-11T06:39:37.244Z,3.38
2023-03-11T06:42:04.432Z,4.43
2023-03-11T06:44:31.389Z,2.22
2023-03-11T06:46:58.438Z,3.45
2023-03-11T06:49:25.461Z,3.72
2023-03-11T06:51:52.952Z,5.85
2023-03-11T06:54:19.846Z,3.72
2023-03-11T06:56:46.920Z,2.35
2023-03-11T06:59:15.475Z,6.88
2023-03-11T07:01:42.390Z,4.95
2023-03-11T07:04:11.017Z,4.82
2023-03-11T07:06:38.209Z,9.93
2023-03-11T07:09:05.530Z,5.50
2023-03-11T07:11:33.208Z,11.80
2023-03-11T07:14:00.839Z,13.52
2023-03-11T07:16:30.659Z,4.45
2023-03-11T07:19:00.921Z,3.63
2023-03-11T07:21:29.571Z,3.47
2023-03-11T07:23:58.832Z,6.25
2023-03-11T07:26:27.149Z,8.07
2023-03-11T07:28:55.240Z,7.45
2023-03-11T07:31:27.568Z,5.88
2023-03-11T07:33:54.820Z,4.45
2023-03-11T07:36:24.217Z,5.57
2023-03-11T07:39:04.456Z,2.63
2023-03-11T07:41:33.604Z,7.15
2023-03-11T07:44:01.756Z,4.60
2023-03-11T07:46:30.081Z,4.90
2023-03-11T07:48:57.351Z,8.32
2023-03-11T07:51:26.856Z,4.28
2023-03-11T07:53:56.520Z,1.73
2023-03-11T07:56:28.040Z,4.95
2023-03-11T07:58:55.359Z,3.72
2023-03-11T08:01:25.190Z,5.45
2023-03-11T08:03:58.823Z,4.43
2023-03-11T08:06:31.222Z,5.68
2023-03-11T08:09:00.232Z,4.55
2023-03-11T08:11:27.523Z,5.93
2023-03-11T08:13:54.917Z,4.97
2023-03-11T08:16:22.782Z,3.70
2023-03-11T08:18:51.182Z,7.15
2023-03-11T08:21:29.173Z,10.27
2023-03-11T08:24:01.601Z,8.98
2023-03-11T08:26:28.873Z,4.68
2023-03-11T08:28:57.451Z,7.18
2023-03-11T08:31:27.888Z,8.63
2023-03-11T08:33:58.607Z,7.18
2023-03-11T08:36:26.138Z,7.60
2023-03-11T08:38:53.239Z,4.80
2023-03-11T08:41:20.319Z,3.90
2023-03-11T08:43:47.435Z,4.18
2023-03-11T08:46:33.245Z,5.50
2023-03-11T08:49:01.675Z,5.10
2023-03-11T08:51:29.616Z,3.47
2023-03-11T08:53:56.583Z,5.95
2023-03-11T08:56:23.876Z,4.45
2023-03-11T08:58:51.008Z,5.03
2023-03-11T09:01:20.224Z,4.45
2023-03-11T09:03:48.113Z,5.80
2023-03-11T09:06:17.049Z,2.75
2023-03-11T09:08:45.257Z,4.70
2023-03-11T09:11:15.240Z,5.45
2023-03-11T09:13:43.102Z,10.15
2023-03-11T09:16:14.430Z,3.25
2023-03-11T09:18:41.601Z,5.15
2023-03-11T09:21:09.664Z,5.50
2023-03-11T09:23:37.008Z,5.15
2023-03-11T09:26:04.629Z,2.63
2023-03-11T09:28:32.008Z,3.33
2023-03-11T09:30:59.385Z,3.85
2023-03-11T09:33:26.713Z,3.53
2023-03-11T09:35:53.853Z,4.15
2023-03-11T09:38:21.212Z,8.30
2023-03-11T09:41:09.321Z,2.70
2023-03-11T09:44:14.199Z,3.47
2023-03-11T09:47:19.745Z,4.90
2023-03-11T09:50:06.451Z,9.43
2023-03-11T09:52:46.650Z,3.10
2023-03-11T09:55:32.007Z,5.35
2023-03-11T09:58:03.039Z,4.63
2023-03-11T10:00:32.135Z,1.77
2023-03-11T10:03:02.833Z,5.30
2023-03-11T10:05:30.735Z,2.72
2023-03-11T10:08:31.211Z,2.15
2023-03-11T10:11:24.224Z,4.55
2023-03-11T10:14:23.981Z,4.07
2023-03-11T10:17:00.467Z,3.58
2023-03-11T10:19:43.849Z,2.42
2023-03-11T10:22:32.600Z,2.78
2023-03-11T10:25:11.497Z,5.25
2023-03-11T10:27:47.106Z,3.28
2023-03-11T10:30:37.597Z,4.18
2023-03-11T10:33:10.844Z,4.20
2023-03-11T10:35:41.059Z,3.40
2023-03-11T10:38:08.019Z,3.70
2023-03-11T10:40:40.568Z,3.15
2023-03-11T10:43:21.798Z,3.80
2023-03-11T10:45:51.191Z,4.07
2023-03-11T10:48:20.376Z,5.13
2023-03-11T10:51:04.037Z,5.25
2023-03-11T10:53:31.336Z,2.25
2023-03-11T10:55:59.788Z,4.68
2023-03-11T10:58:30.008Z,3.30
2023-03-11T11:01:05.352Z,3.50
2023-03-11T11:03:34.501Z,4.28
2023-03-11T11:06:06.803Z,2.55
2023-03-11T11:08:34.303Z,3.60
2023-03-11T11:11:03.845Z,2.63
2023-03-11T11:13:34.721Z,3.70
2023-03-11T11:16:16.984Z,2.60
2023-03-11T11:18:50.049Z,5.65
2023-03-11T11:21:41.337Z,3.25
2023-03-11T11:24:27.798Z,2.88
2023-03-11T11:27:22.406Z,2.28
2023-03-11T11:30:13.893Z,3.83
2023-03-11T11:32:42.372Z,3.83
2023-03-11T11:35:15.114Z,3.25
2023-03-11T11:37:46.302Z,5.60
2023-03-11T11:40:30.812Z,5.32
2023-03-11T11:43:05.340Z,2.90
2023-03-11T11:45:48.537Z,3.15
2023-03-11T11:48:24.376Z,2.20
2023-03-11T11:51:19.940Z,4.30
2023-03-11T11:53:58.301Z,3.28
2023-03-11T11:56:26.470Z,2.75
2023-03-11T11:58:54.743Z,2.80
2023-03-11T12:01:47.632Z,2.85
2023-03-11T12:04:33.075Z,2.53
2023-03-11T12:07:25.544Z,2.50
2023-03-11T12:10:23.884Z,3.60
2023-03-11T12:13:05.850Z,2.90
2023-03-11T12:15:42.160Z,5.72
2023-03-11T12:18:35.443Z,4.65
2023-03-11T12:21:27.450Z,6.30
2023-03-11T12:24:00.766Z,2.80
2023-03-11T12:26:34.068Z,3.80
2023-03-11T12:29:15.713Z,3.50
2023-03-11T12:31:45.129Z,4.60
2023-03-11T12:34:17.580Z,5.05
2023-03-11T12:36:47.002Z,3.50
2023-03-11T12:39:36.039Z,2.25
2023-03-11T12:42:38.743Z,2.10
2023-03-11T12:45:48.636Z,3.53
2023-03-11T12:48:27.484Z,4.10
2023-03-11T12:50:54.637Z,2.58
2023-03-11T12:53:45.841Z,2.28
2023-03-11T12:56:25.021Z,6.38
2023-03-11T12:59:25.465Z,6.97
2023-03-11T13:01:53.068Z,3.35
2023-03-11T13:04:40.416Z,5.72
2023-03-11T13:07:29.089Z,4.93
2023-03-11T13:10:12.220Z,3.95
2023-03-11T13:12:51.401Z,2.30
2023-03-11T13:15:18.409Z,7.05
2023-03-11T13:18:11.502Z,2.50
2023-03-11T13:20:44.380Z,5.43
2023-03-11T13:23:14.177Z,1.73
2023-03-11T13:26:05.482Z,4.18
2023-03-11T13:28:57.047Z,4.47
2023-03-11T13:31:59.823Z,3.50
2023-03-11T13:34:53.649Z,3.17
2023-03-11T13:37:38.601Z,3.00
2023-03-11T13:42:51.732Z,4.03
2023-03-11T13:45:29.433Z,2.95
2023-03-11T13:48:14.001Z,3.13
2023-03-11T13:50:47.976Z,4.18
2023-03-11T13:53:40.837Z,3.72
2023-03-11T13:56:18.844Z,2.67
2023-03-11T13:58:45.926Z,2.63
2023-03-11T14:01:17.322Z,2.70
2023-03-11T14:03:47.344Z,3.72
2023-03-11T14:06:20.067Z,3.28
2023-03-11T14:08:57.958Z,3.88
2023-03-11T14:11:29.569Z,2.83
2023-03-11T14:13:56.664Z,4.00
2023-03-11T14:16:28.902Z,3.83
2023-03-11T14:19:18.608Z,3.92
2023-03-11T14:21:47.351Z,5.53
2023-03-11T14:24:30.583Z,4.60
2023-03-11T14:27:00.644Z,2.72
2023-03-11T14:29:43.306Z,3.35
2023-03-11T14:32:29.483Z,3.70
2023-03-11T14:34:57.205Z,2.85
2023-03-11T14:37:38.514Z,2.83
2023-03-11T14:40:23.835Z,3.33
2023-03-11T14:42:53.907Z,2.17
2023-03-11T14:45:28.696Z,4.03
2023-03-11T14:48:18.157Z,4.47
2023-03-11T14:50:49.417Z,4.00
2023-03-11T14:53:30.922Z,2.88
2023-03-11T14:56:01.996Z,3.30
2023-03-11T14:58:43.276Z,4.28
2023-03-11T15:01:20.663Z,3.40
2023-03-11T15:03:59.596Z,2.45
2023-03-11T15:06:29.425Z,4.45
2023-03-11T15:09:10.505Z,3.13
2023-03-11T15:11:52.046Z,2.75
2023-03-11T15:14:26.126Z,2.83
2023-03-11T15:16:54.679Z,3.08
2023-03-11T15:19:27.867Z,3.50
2023-03-11T15:21:58.581Z,4.93
2023-03-11T15:24:31.311Z,3.50
2023-03-11T15:27:21.768Z,4.65
2023-03-11T15:29:53.103Z,4.57
2023-03-11T15:32:42.042Z,2.70
2023-03-11T15:35:10.636Z,3.20
2023-03-11T15:37:38.507Z,2.83
2023-03-11T15:40:20.111Z,4.07
2023-03-11T15:42:50.400Z,4.30
2023-03-11T15:45:19.754Z,4.57
2023-03-11T15:47:48.798Z,5.70
2023-03-11T15:50:24.148Z,3.92
2023-03-11T15:52:57.090Z,4.85
2023-03-11T15:55:26.035Z,5.95
2023-03-11T15:58:05.510Z,4.10
2023-03-11T16:00:33.014Z,3.40
2023-03-11T16:03:01.979Z,5.32
2023-03-11T16:05:29.497Z,5.15
2023-03-11T16:07:56.556Z,4.40
2023-03-11T16:10:25.727Z,6.03
2023-03-11T16:12:52.666Z,6.63
2023-03-11T16:15:29.661Z,6.55
2023-03-11T16:17:59.719Z,17.20
2023-03-11T16:20:31.408Z,12.20
2023-03-11T16:22:59.816Z,19.35
2023-03-11T16:25:33.647Z,4.97
2023-03-11T16:28:01.342Z,6.43
2023-03-11T16:30:30.223Z,6.82
2023-03-11T16:32:57.698Z,3.97
2023-03-11T16:35:24.921Z,6.00
2023-03-11T16:37:52.217Z,4.50
2023-03-11T16:40:28.267Z,3.30
2023-03-11T16:43:01.819Z,3.08
2023-03-11T16:45:29.359Z,4.03
2023-03-11T16:47:56.460Z,3.17
2023-03-11T16:50:24.524Z,7.20
2023-03-11T16:52:52.728Z,5.97
2023-03-11T16:55:20.562Z,5.65
2023-03-11T16:57:47.734Z,3.45
2023-03-11T17:00:15.649Z,7.20
2023-03-11T17:02:43.499Z,3.47
2023-03-11T17:05:11.670Z,3.05
2023-03-11T17:07:40.102Z,5.68
2023-03-11T17:10:10.561Z,6.88
2023-03-11T17:12:37.651Z,3.22
2023-03-11T17:15:06.390Z,5.30
2023-03-11T17:17:33.306Z,4.25
2023-03-11T17:20:00.574Z,6.82
2023-03-11T17:22:27.893Z,4.65
2023-03-11T17:24:55.172Z,4.65
2023-03-11T17:27:22.548Z,5.00
2023-03-11T17:29:49.825Z,6.10
2023-03-11T17:32:17.672Z,6.45
2023-03-11T17:34:44.962Z,4.60
2023-03-11T17:37:12.135Z,5.85
2023-03-11T17:39:39.151Z,5.68
2023-03-11T17:42:06.178Z,3.60
2023-03-11T17:44:48.399Z,5.65
2023-03-11T17:47:19.743Z,3.72
2023-03-11T17:49:48.050Z,4.72
2023-03-11T17:52:15.084Z,6.20
2023-03-11T17:54:42.262Z,8.10
2023-03-11T17:57:09.141Z,4.53
2023-03-11T17:59:36.161Z,4.07
2023-03-11T18:02:03.351Z,5.70
2023-03-11T18:04:31.255Z,3.67
2023-03-11T18:06:58.533Z,3.72
2023-03-11T18:09:25.564Z,4.95
2023-03-11T18:11:54.269Z,7.80
2023-03-11T18:14:21.217Z,5.95
2023-03-11T18:16:48.445Z,6.55
2023-03-11T18:19:15.413Z,5.53
2023-03-11T18:21:42.466Z,6.30
2023-03-11T18:24:09.584Z,3.55
2023-03-11T18:26:36.575Z,3.63
2023-03-11T18:29:03.635Z,9.77
2023-03-11T18:31:31.264Z,6.18
2023-03-11T18:34:02.096Z,5.85
2023-03-11T18:36:32.188Z,5.45
2023-03-11T18:39:00.287Z,6.40
2023-03-11T18:41:30.110Z,7.57
2023-03-11T18:43:57.977Z,10.60
2023-03-11T18:46:27.164Z,4.10
2023-03-11T18:48:56.871Z,8.18
2023-03-11T18:51:25.174Z,7.65
2023-03-11T18:53:52.284Z,7.55
2023-03-11T18:56:19.282Z,6.93
2023-03-11T18:58:46.473Z,6.32
2023-03-11T19:01:17.720Z,6.25
2023-03-11T19:03:52.764Z,7.47
2023-03-11T19:06:21.280Z,7.85
2023-03-11T19:08:49.035Z,7.78
2023-03-11T19:11:19.810Z,6.15
2023-03-11T19:13:48.217Z,7.07
2023-03-11T19:16:22.109Z,7.40
2023-03-11T19:18:50.118Z,6.20
2023-03-11T19:21:17.876Z,6.18
2023-03-11T19:23:45.615Z,6.82
2023-03-11T19:26:13.171Z,6.57
2023-03-11T19:28:40.349Z,7.05
2023-03-11T19:31:07.505Z,9.63
2023-03-11T19:33:35.347Z,7.72
2023-03-11T19:36:05.325Z,6.18
2023-03-11T19:38:32.935Z,5.68
2023-03-11T19:41:04.393Z,8.07
2023-03-11T19:43:32.362Z,7.30
2023-03-11T19:45:59.740Z,3.55
2023-03-11T19:48:26.964Z,5.10
2023-03-11T19:50:54.753Z,5.05
2023-03-11T19:53:22.868Z,4.18
2023-03-11T19:55:55.972Z,6.43
2023-03-11T19:58:24.877Z,7.68
2023-03-11T20:00:52.507Z,7.57
2023-03-11T20:03:21.792Z,7.95
2023-03-11T20:05:50.728Z,8.40
2023-03-11T20:08:20.276Z,7.97
2023-03-11T20:10:49.833Z,6.18
2023-03-11T20:13:20.062Z,6.63
2023-03-11T20:15:47.713Z,7.28
2023-03-11T20:18:15.478Z,8.02
2023-03-11T20:20:43.324Z,6.75
2023-03-11T20:23:11.603Z,7.00
2023-03-11T20:25:41.891Z,8.15
2023-03-11T20:28:11.732Z,9.35
2023-03-11T20:30:39.478Z,8.57
2023-03-11T20:33:07.574Z,7.75
2023-03-11T20:35:34.909Z,9.38
2023-03-11T20:38:02.957Z,9.02
2023-03-11T20:40:30.513Z,8.63
2023-03-11T20:42:57.661Z,10.65
2023-03-11T20:45:24.868Z,11.68
2023-03-11T20:47:53.988Z,11.18
2023-03-11T20:50:22.472Z,14.68
2023-03-11T20:52:50.604Z,13.27
2023-03-11T20:55:18.273Z,24.10
2023-03-11T20:57:45.375Z,26.77
2023-03-11T21:00:14.154Z,18.92
2023-03-11T21:02:42.851Z,18.17
2023-03-11T21:05:11.618Z,21.15
2023-03-11T21:07:39.364Z,24.27
2023-03-11T21:10:09.327Z,23.98
2023-03-11T21:12:36.604Z,27.00
2023-03-11T21:15:05.093Z,32.85
2023-03-11T21:17:33.612Z,28.92
2023-03-11T21:20:01.003Z,24.42
2023-03-11T21:22:28.094Z,22.92
2023-03-11T21:24:55.506Z,25.58
2023-03-11T21:27:26.648Z,26.17
2023-03-11T21:29:57.329Z,25.98
2023-03-11T21:32:25.477Z,22.60
2023-03-11T21:34:57.630Z,27.67
2023-03-11T21:37:25.964Z,18.92
2023-03-11T21:39:53.282Z,22.15
2023-03-11T21:42:21.144Z,16.00
2023-03-11T21:44:48.261Z,12.65
2023-03-11T21:47:15.240Z,10.73
2023-03-11T21:49:42.294Z,11.02
2023-03-11T21:52:09.548Z,12.18
2023-03-11T21:54:36.855Z,28.38
2023-03-11T21:57:04.157Z,16.38
2023-03-11T21:59:31.460Z,9.35
2023-03-11T22:02:02.707Z,11.00
2023-03-11T22:04:31.282Z,8.18
2023-03-11T22:06:59.258Z,13.65
2023-03-11T22:09:26.720Z,9.70
2023-03-11T22:11:56.166Z,8.18
2023-03-11T22:14:24.381Z,7.03
2023-03-11T22:16:52.032Z,8.95
2023-03-11T22:19:19.802Z,11.05
2023-03-11T22:21:48.569Z,13.88
2023-03-11T22:24:16.175Z,13.50
2023-03-11T22:26:43.308Z,12.07
2023-03-11T22:29:13.332Z,10.65
2023-03-11T22:31:41.099Z,10.38
2023-03-11T22:34:08.491Z,11.55
2023-03-11T22:36:35.637Z,13.07
2023-03-11T22:39:04.396Z,10.45
2023-03-11T22:41:32.471Z,10.40
2023-03-11T22:43:59.658Z,12.10
2023-03-11T22:46:27.344Z,10.45
2023-03-11T22:48:54.465Z,9.20
2023-03-11T22:51:21.707Z,10.63
2023-03-11T22:53:48.942Z,10.48
2023-03-11T22:56:17.722Z,8.48
2023-03-11T22:58:45.234Z,11.30
2023-03-11T23:01:12.907Z,9.40
2023-03-11T23:03:40.092Z,9.65
2023-03-11T23:06:09.181Z,10.25
2023-03-11T23:08:37.384Z,9.98
2023-03-11T23:11:07.221Z,9.88
2023-03-11T23:13:37.810Z,7.35
2023-03-11T23:16:10.513Z,9.48
2023-03-11T23:18:38.449Z,7.47
2023-03-11T23:21:05.645Z,10.77
2023-03-11T23:23:32.784Z,10.15
2023-03-11T23:25:59.860Z,7.90
2023-03-11T23:28:26.961Z,10.52
2023-03-11T23:30:54.159Z,8.18
2023-03-11T23:33:21.198Z,10.48
2023-03-11T23:35:48.180Z,7.10
2023-03-11T23:38:15.238Z,7.82
2023-03-11T23:40:42.364Z,7.38
2023-03-11T23:43:09.398Z,7.28
2023-03-11T23:45:36.645Z,7.97
2023-03-11T23:48:03.623Z,8.00
2023-03-11T23:50:30.675Z,8.25
2023-03-11T23:52:57.651Z,9.07
2023-03-11T23:55:24.622Z,10.10
2023-03-11T23:57:51.445Z,7.53
